Time;durP1;ratioP1;P1;durP2;ratioP2;P2;SDS_P1;SDS_P2;PMS_P1;PMS_P2;Temp;Humidity;BMP_temperature;BMP_pressure;BME280_temperature;BME280_humidity;BME280_pressure;Samples;Min_cycle;Max_cycle;Signal;HPM_P1;HPM_P2
2023/08/22 00:01:38;;;;;;;13.05;2.53;;;33.50;97.50;;;;;;5048511;28;20025;-60
2023/08/22 00:04:04;;;;;;;9.40;1.90;;;33.60;97.90;;;;;;5048706;28;20022;-59
2023/08/22 00:06:31;;;;;;;13.98;2.67;;;33.70;98.10;;;;;;5049209;28;20044;-60
2023/08/22 00:08:57;;;;;;;13.85;3.00;;;33.70;97.60;;;;;;5047350;28;20103;-58
2023/08/22 00:11:24;;;;;;;8.38;1.50;;;33.80;98.10;;;;;;5049064;28;20509;-59
2023/08/22 00:13:50;;;;;;;6.68;1.70;;;33.80;97.40;;;;;;5048505;28;20032;-60
2023/08/22 00:16:17;;;;;;;7.07;1.90;;;33.70;97.10;;;;;;5047338;28;20099;-60
2023/08/22 00:18:43;;;;;;;12.18;2.17;;;33.50;97.60;;;;;;5048121;28;20076;-60
2023/08/22 00:21:10;;;;;;;6.30;1.95;;;33.50;98.60;;;;;;5048137;28;20012;-60
2023/08/22 00:23:36;;;;;;;5.65;1.85;;;33.50;98.90;;;;;;5047931;28;20020;-60
2023/08/22 00:26:02;;;;;;;7.07;1.98;;;33.60;98.60;;;;;;5047909;28;20025;-58
2023/08/22 00:28:29;;;;;;;5.95;2.17;;;33.50;98.00;;;;;;5046243;28;20071;-60
2023/08/22 00:30:55;;;;;;;7.63;2.08;;;33.50;98.50;;;;;;5048678;28;20017;-58
2023/08/22 00:33:21;;;;;;;5.22;1.90;;;33.50;98.30;;;;;;5047779;28;20024;-59
2023/08/22 00:35:49;;;;;;;12.35;2.20;;;33.50;99.10;;;;;;5049331;28;20093;-58
2023/08/22 00:38:16;;;;;;;8.32;2.10;;;33.40;99.00;;;;;;5047760;28;20502;-60
2023/08/22 00:40:42;;;;;;;8.68;2.13;;;33.30;99.20;;;;;;5047512;28;20021;-57
2023/08/22 00:43:09;;;;;;;9.52;2.00;;;33.30;99.90;;;;;;5048054;28;20742;-58
2023/08/22 00:45:36;;;;;;;7.88;1.90;;;33.10;99.70;;;;;;5048258;28;20013;-59
2023/08/22 00:48:03;;;;;;;9.43;2.38;;;33.00;99.90;;;;;;5047165;28;20014;-61
2023/08/22 00:50:29;;;;;;;6.00;2.10;;;33.00;99.90;;;;;;5047615;28;20061;-60
2023/08/22 00:52:56;;;;;;;7.07;2.30;;;32.90;99.90;;;;;;5047596;28;20967;-62
2023/08/22 00:55:22;;;;;;;4.88;2.25;;;32.80;99.80;;;;;;5049541;28;20104;-63
2023/08/22 00:57:49;;;;;;;13.55;2.20;;;32.70;99.80;;;;;;5047344;28;20479;-55
2023/08/22 01:00:15;;;;;;;6.00;2.50;;;32.70;99.90;;;;;;5048001;28;20433;-60
2023/08/22 01:02:42;;;;;;;9.98;2.30;;;32.70;99.90;;;;;;5047669;28;20028;-57
2023/08/22 01:05:09;;;;;;;9.02;2.25;;;32.60;99.90;;;;;;5048550;28;20096;-58
2023/08/22 01:07:53;;;;;;;9.10;2.72;;;32.50;99.40;;;;;;5045723;28;20397;-59
2023/08/22 01:10:44;;;;;;;8.73;2.83;;;32.50;98.30;;;;;;5047826;28;20066;-58
2023/08/22 01:13:41;;;;;;;8.70;2.30;;;32.30;98.20;;;;;;5046477;28;20025;-59
2023/08/22 01:16:08;;;;;;;12.10;2.67;;;32.20;98.60;;;;;;5005838;28;20574;-59
2023/08/22 01:18:35;;;;;;;6.00;2.00;;;32.10;99.10;;;;;;5006043;28;20159;-57
2023/08/22 01:21:05;;;;;;;6.20;2.30;;;32.00;99.00;;;;;;5005175;28;20156;-59
2023/08/22 01:23:32;;;;;;;5.50;2.03;;;31.80;99.20;;;;;;5005689;28;20180;-61
2023/08/22 01:25:59;;;;;;;10.43;2.90;;;31.80;99.30;;;;;;5004716;28;20057;-60
2023/08/22 01:28:39;;;;;;;8.30;2.03;;;31.70;99.00;;;;;;5005203;28;20533;-56
2023/08/22 01:31:17;;;;;;;6.95;2.25;;;31.60;98.30;;;;;;5003003;28;20057;-61
2023/08/22 01:33:57;;;;;;;9.73;2.08;;;31.50;98.80;;;;;;5004318;28;20057;-61
2023/08/22 01:36:25;;;;;;;7.97;2.20;;;31.50;98.30;;;;;;5005558;28;20542;-57
2023/08/22 01:38:53;;;;;;;6.72;3.38;;;31.40;98.40;;;;;;5005509;28;20057;-57
2023/08/22 01:41:20;;;;;;;5.75;1.98;;;31.40;98.20;;;;;;5005235;28;20446;-59
2023/08/22 01:43:49;;;;;;;9.88;2.33;;;31.30;98.20;;;;;;5005640;28;20065;-60
2023/08/22 01:46:15;;;;;;;12.30;2.60;;;31.30;98.40;;;;;;5005403;28;20061;-61
2023/08/22 01:48:42;;;;;;;11.35;2.80;;;31.20;98.30;;;;;;5004382;28;20530;-59
2023/08/22 01:51:08;;;;;;;12.88;3.10;;;31.20;98.30;;;;;;5005630;28;20136;-62
2023/08/22 01:53:34;;;;;;;10.43;4.70;;;31.10;97.90;;;;;;5045108;28;20060;-60
2023/08/22 01:56:02;;;;;;;7.60;3.00;;;31.00;98.10;;;;;;5046661;28;20434;-58
2023/08/22 01:58:28;;;;;;;15.95;3.10;;;31.00;97.80;;;;;;5046326;28;20066;-64
2023/08/22 02:00:55;;;;;;;10.07;3.30;;;30.90;97.80;;;;;;5047248;28;20040;-58
2023/08/22 02:03:22;;;;;;;10.95;2.58;;;30.90;97.50;;;;;;5046949;28;20518;-60
2023/08/22 02:05:49;;;;;;;8.68;2.60;;;30.80;97.60;;;;;;5047805;28;20046;-62
2023/08/22 02:08:15;;;;;;;8.95;2.70;;;30.80;97.20;;;;;;5046469;28;20095;-63
2023/08/22 02:10:41;;;;;;;10.45;2.40;;;30.70;97.10;;;;;;5045120;28;20506;-60
2023/08/22 02:13:08;;;;;;;8.63;2.75;;;30.70;97.40;;;;;;5046289;28;20547;-65
2023/08/22 02:15:34;;;;;;;12.02;2.33;;;30.70;97.20;;;;;;5046440;28;20052;-60
2023/08/22 02:18:02;;;;;;;7.07;1.98;;;30.60;97.40;;;;;;5045658;28;20063;-59
2023/08/22 02:20:28;;;;;;;14.75;2.05;;;30.50;97.60;;;;;;5047232;28;20037;-60
2023/08/22 02:22:55;;;;;;;10.85;2.15;;;30.50;97.60;;;;;;5046488;28;20048;-58
2023/08/22 02:25:22;;;;;;;8.10;2.00;;;30.40;97.60;;;;;;5046689;28;21273;-56
2023/08/22 02:27:48;;;;;;;10.15;2.67;;;30.40;98.20;;;;;;5046308;28;20046;-60
2023/08/22 02:30:15;;;;;;;11.45;2.45;;;30.30;98.20;;;;;;5045932;28;20049;-59
2023/08/22 02:32:42;;;;;;;8.93;2.30;;;30.30;98.60;;;;;;5045848;28;20050;-59
2023/08/22 02:35:08;;;;;;;9.95;2.42;;;30.20;99.00;;;;;;5046235;28;20554;-59
2023/08/22 02:37:35;;;;;;;16.10;2.13;;;30.10;99.40;;;;;;5047110;28;20081;-56
2023/08/22 02:40:04;;;;;;;15.05;2.50;;;30.00;99.80;;;;;;5046807;28;20083;-57
2023/08/22 02:42:30;;;;;;;14.50;2.88;;;30.00;99.90;;;;;;5044517;28;20073;-59
2023/08/22 02:44:57;;;;;;;18.15;2.90;;;29.90;99.90;;;;;;5045807;28;20055;-56
2023/08/22 02:47:23;;;;;;;27.65;3.40;;;29.80;99.90;;;;;;5046495;28;20522;-57
2023/08/22 02:49:49;;;;;;;13.85;2.85;;;29.80;99.90;;;;;;5046353;28;20070;-59
2023/08/22 02:52:16;;;;;;;14.07;3.10;;;29.70;99.90;;;;;;5046467;28;20060;-58
2023/08/22 02:54:42;;;;;;;16.25;2.88;;;29.70;99.90;;;;;;5045377;28;20203;-60
2023/08/22 02:57:09;;;;;;;22.42;3.45;;;29.60;99.90;;;;;;5046131;28;20108;-57
2023/08/22 02:59:35;;;;;;;17.63;3.40;;;29.60;99.90;;;;;;5046694;28;20508;-59
2023/08/22 03:02:03;;;;;;;14.45;3.17;;;29.60;99.90;;;;;;5046683;28;20113;-59
2023/08/22 03:04:30;;;;;;;14.07;2.72;;;29.40;99.90;;;;;;5046248;28;20050;-57
2023/08/22 03:06:57;;;;;;;19.55;3.83;;;29.40;99.90;;;;;;5046918;28;20092;-55
2023/08/22 03:09:23;;;;;;;22.55;3.90;;;29.30;99.90;;;;;;5045255;28;20056;-57
2023/08/22 03:11:49;;;;;;;23.05;4.22;;;29.20;99.90;;;;;;5046291;28;20066;-57
2023/08/22 03:14:16;;;;;;;19.60;3.83;;;29.20;99.90;;;;;;5046736;28;20534;-58
2023/08/22 03:16:42;;;;;;;17.40;3.88;;;29.10;99.90;;;;;;5045978;28;20057;-57
2023/08/22 03:19:08;;;;;;;16.27;3.67;;;29.00;99.90;;;;;;5046345;28;20039;-58
2023/08/22 03:21:35;;;;;;;25.13;3.67;;;28.90;99.90;;;;;;5045895;28;20057;-59
2023/08/22 03:24:01;;;;;;;23.10;3.67;;;28.80;99.90;;;;;;5046074;28;20055;-58
2023/08/22 03:26:28;;;;;;;24.58;4.53;;;28.70;99.90;;;;;;5046798;28;20046;-61
2023/08/22 03:28:54;;;;;;;21.13;4.47;;;28.70;99.90;;;;;;5047080;28;20136;-59
2023/08/22 03:31:26;;;;;;;23.70;4.30;;;28.80;99.90;;;;;;5046790;28;20057;-59
2023/08/22 03:33:53;;;;;;;12.15;3.58;;;28.80;99.90;;;;;;5048006;28;20054;-57
2023/08/22 03:36:20;;;;;;;18.08;4.20;;;28.80;99.90;;;;;;5050530;28;20046;-59
2023/08/22 03:38:50;;;;;;;17.33;4.30;;;28.70;99.90;;;;;;5050728;28;20074;-58
2023/08/22 03:41:18;;;;;;;16.52;4.03;;;28.80;99.90;;;;;;5050303;28;20062;-58
2023/08/22 03:43:44;;;;;;;14.55;3.47;;;28.80;99.90;;;;;;5050130;28;20053;-58
2023/08/22 03:46:12;;;;;;;12.55;3.88;;;28.80;99.90;;;;;;5049686;28;20406;-57
2023/08/22 03:48:38;;;;;;;14.10;3.30;;;28.80;99.90;;;;;;5050056;28;20056;-58
2023/08/22 03:51:07;;;;;;;12.05;3.30;;;28.80;99.90;;;;;;5050261;28;20195;-58
2023/08/22 03:53:35;;;;;;;31.90;4.53;;;28.80;99.90;;;;;;5049526;28;20529;-58
2023/08/22 03:56:02;;;;;;;33.15;5.25;;;28.70;99.90;;;;;;5050039;28;20303;-55
2023/08/22 03:58:28;;;;;;;11.93;4.05;;;28.70;99.90;;;;;;5049389;28;20582;-58
2023/08/22 04:01:00;;;;;;;27.00;5.00;;;28.70;99.90;;;;;;5049604;28;20185;-55
2023/08/22 04:03:27;;;;;;;18.92;4.10;;;28.70;99.90;;;;;;5048482;28;20066;-57
2023/08/22 04:05:53;;;;;;;16.67;3.75;;;28.70;99.90;;;;;;5048675;28;20058;-52
2023/08/22 04:08:20;;;;;;;9.98;3.45;;;28.70;99.90;;;;;;5049191;28;20053;-56
2023/08/22 04:10:46;;;;;;;13.98;3.53;;;28.70;99.90;;;;;;5047808;28;20079;-58
2023/08/22 04:13:13;;;;;;;9.82;3.17;;;28.70;99.90;;;;;;5048890;28;20472;-59
2023/08/22 04:15:39;;;;;;;13.27;3.47;;;28.60;99.90;;;;;;5049107;28;20057;-58
2023/08/22 04:18:06;;;;;;;10.35;2.90;;;28.60;99.90;;;;;;5049720;28;20163;-58
2023/08/22 04:20:33;;;;;;;10.35;3.55;;;28.60;99.90;;;;;;5048710;28;20638;-56
2023/08/22 04:22:59;;;;;;;12.18;3.67;;;28.60;99.90;;;;;;5047447;28;20062;-59
2023/08/22 04:25:26;;;;;;;12.20;3.33;;;28.60;99.90;;;;;;5046928;28;20137;-61
2023/08/22 04:27:52;;;;;;;15.18;3.45;;;28.50;99.90;;;;;;5047486;28;20053;-59
2023/08/22 04:30:19;;;;;;;11.30;3.25;;;28.50;99.90;;;;;;5046905;28;20062;-59
2023/08/22 04:32:45;;;;;;;9.30;2.72;;;28.50;99.90;;;;;;5047851;28;20062;-58
2023/08/22 04:35:12;;;;;;;8.27;2.83;;;28.50;99.90;;;;;;5049492;28;20059;-60
2023/08/22 04:37:38;;;;;;;13.07;2.90;;;28.40;99.90;;;;;;5045829;28;20074;-57
2023/08/22 04:40:05;;;;;;;9.70;3.00;;;28.40;99.90;;;;;;5049962;28;20132;-59
2023/08/22 04:42:31;;;;;;;8.48;3.22;;;28.40;99.90;;;;;;5049213;28;20054;-56
2023/08/22 04:44:58;;;;;;;9.80;3.10;;;28.40;99.90;;;;;;5048938;28;20514;-57
2023/08/22 04:47:24;;;;;;;7.40;3.08;;;28.30;99.90;;;;;;5047128;28;20060;-55
2023/08/22 04:49:50;;;;;;;10.90;3.00;;;28.30;99.90;;;;;;5049431;28;20050;-60
2023/08/22 04:52:17;;;;;;;15.25;3.60;;;28.20;99.90;;;;;;5049776;28;20528;-61
2023/08/22 04:54:43;;;;;;;12.93;3.65;;;28.10;99.90;;;;;;5049383;28;20058;-57
2023/08/22 04:57:10;;;;;;;10.57;3.40;;;28.10;99.90;;;;;;5048487;28;20148;-60
2023/08/22 04:59:36;;;;;;;13.35;3.88;;;28.10;99.90;;;;;;5048860;28;20058;-60
2023/08/22 05:02:03;;;;;;;13.82;4.20;;;28.10;99.90;;;;;;5050071;28;20055;-55
2023/08/22 05:04:29;;;;;;;14.02;3.60;;;28.00;99.90;;;;;;5049162;28;20061;-57
2023/08/22 05:06:55;;;;;;;10.02;3.30;;;27.90;99.90;;;;;;5048967;28;20084;-59
2023/08/22 05:09:22;;;;;;;11.93;4.15;;;27.90;99.90;;;;;;5048385;28;20075;-58
2023/08/22 05:11:50;;;;;;;13.15;4.65;;;27.90;99.90;;;;;;5050024;28;20542;-58
2023/08/22 05:14:16;;;;;;;13.65;3.90;;;27.80;99.90;;;;;;5048428;28;20075;-61
2023/08/22 05:16:43;;;;;;;13.02;3.85;;;27.80;99.90;;;;;;5048751;28;20108;-58
2023/08/22 05:19:10;;;;;;;10.88;4.35;;;27.80;99.90;;;;;;5048268;28;20048;-56
2023/08/22 05:21:36;;;;;;;12.25;3.95;;;27.80;99.90;;;;;;5048052;28;20090;-57
2023/08/22 05:24:03;;;;;;;11.45;3.92;;;27.80;99.90;;;;;;5048557;28;20404;-56
2023/08/22 05:26:29;;;;;;;14.63;4.95;;;27.80;99.90;;;;;;5048608;28;20521;-56
2023/08/22 05:28:56;;;;;;;15.38;5.63;;;27.70;99.90;;;;;;5047863;28;20075;-54
2023/08/22 05:31:23;;;;;;;13.82;4.53;;;27.70;99.90;;;;;;5048345;28;20148;-60
2023/08/22 05:33:51;;;;;;;10.25;4.65;;;27.60;99.90;;;;;;5048186;28;20065;-60
2023/08/22 05:36:17;;;;;;;13.43;4.28;;;27.70;99.90;;;;;;5047637;28;20153;-58
2023/08/22 05:38:44;;;;;;;9.73;4.05;;;27.60;99.90;;;;;;5049036;28;20072;-58
2023/08/22 05:41:10;;;;;;;16.52;4.85;;;27.60;99.90;;;;;;5048544;28;20390;-58
2023/08/22 05:43:37;;;;;;;11.90;4.40;;;27.60;99.90;;;;;;5047542;28;20066;-58
2023/08/22 05:46:03;;;;;;;10.13;4.18;;;27.60;99.90;;;;;;5048138;28;20114;-60
2023/08/22 05:48:30;;;;;;;13.73;4.20;;;27.50;99.90;;;;;;5047795;28;20530;-58
2023/08/22 05:50:57;;;;;;;9.13;4.85;;;27.50;99.90;;;;;;5048643;28;20516;-57
2023/08/22 05:53:23;;;;;;;12.93;4.63;;;27.50;99.90;;;;;;5047398;28;20055;-57
2023/08/22 05:55:49;;;;;;;15.93;4.88;;;27.50;99.90;;;;;;5047910;28;20057;-59
2023/08/22 05:58:16;;;;;;;16.38;4.93;;;27.40;99.90;;;;;;5046777;28;20064;-60
2023/08/22 06:00:43;;;;;;;16.40;5.47;;;27.40;99.90;;;;;;5047631;28;20600;-61
2023/08/22 06:03:09;;;;;;;9.75;4.95;;;27.30;99.90;;;;;;5046340;28;20054;-56
2023/08/22 06:05:35;;;;;;;12.60;5.43;;;27.30;99.90;;;;;;5045567;28;20065;-60
2023/08/22 06:08:02;;;;;;;12.50;5.60;;;27.30;99.90;;;;;;5045520;28;20090;-57
2023/08/22 06:10:28;;;;;;;11.93;5.07;;;27.30;99.90;;;;;;5047214;28;20055;-60
2023/08/22 06:12:54;;;;;;;9.82;5.32;;;27.30;99.90;;;;;;5046748;28;20157;-60
2023/08/22 06:15:21;;;;;;;13.00;5.57;;;27.30;99.90;;;;;;5046904;28;20118;-53
2023/08/22 06:17:47;;;;;;;17.42;6.05;;;27.30;99.90;;;;;;5046662;28;20117;-60
2023/08/22 06:20:15;;;;;;;17.25;6.30;;;27.20;99.90;;;;;;5046862;28;20052;-57
2023/08/22 06:22:41;;;;;;;16.67;6.20;;;27.20;99.90;;;;;;5047356;28;20077;-58
2023/08/22 06:25:08;;;;;;;16.73;5.90;;;27.20;99.90;;;;;;5046983;28;20068;-55
2023/08/22 06:27:34;;;;;;;21.67;6.85;;;27.10;99.90;;;;;;5046365;28;20063;-56
2023/08/22 06:30:02;;;;;;;16.27;6.60;;;27.10;99.90;;;;;;5044903;28;21128;-57
2023/08/22 06:32:28;;;;;;;14.02;6.30;;;27.10;99.90;;;;;;5044099;28;20068;-60
2023/08/22 06:34:59;;;;;;;11.73;6.38;;;27.00;99.90;;;;;;5042019;28;20147;-60
2023/08/22 06:37:26;;;;;;;11.70;5.90;;;27.00;99.90;;;;;;5043446;28;20535;-57
2023/08/22 06:39:52;;;;;;;21.38;6.22;;;27.00;99.90;;;;;;5043250;28;20401;-59
2023/08/22 06:42:18;;;;;;;14.73;6.72;;;26.90;99.90;;;;;;5043576;28;20057;-57
2023/08/22 06:44:45;;;;;;;16.80;6.57;;;26.90;99.90;;;;;;5042094;28;20107;-57
2023/08/22 06:47:11;;;;;;;28.83;20.25;;;26.80;99.90;;;;;;5048054;28;20197;-61
2023/08/22 06:49:37;;;;;;;27.20;21.23;;;26.80;99.90;;;;;;5046849;28;20066;-54
2023/08/22 06:52:04;;;;;;;29.13;21.65;;;26.70;99.90;;;;;;5046676;28;20224;-59
2023/08/22 06:54:32;;;;;;;22.20;10.73;;;26.70;99.90;;;;;;5046551;28;20422;-60
2023/08/22 06:56:58;;;;;;;15.75;6.40;;;26.70;99.90;;;;;;5044936;28;20095;-59
2023/08/22 06:59:25;;;;;;;19.25;6.93;;;26.70;99.90;;;;;;5042136;28;20210;-56
2023/08/22 07:01:51;;;;;;;19.27;6.85;;;26.70;99.90;;;;;;5046526;28;20076;-61
2023/08/22 07:04:18;;;;;;;20.35;7.45;;;26.70;99.90;;;;;;5045531;28;20048;-57
2023/08/22 07:06:44;;;;;;;15.05;6.55;;;26.60;99.90;;;;;;5046273;28;20534;-55
2023/08/22 07:09:11;;;;;;;15.80;6.57;;;26.60;99.90;;;;;;5045840;28;20064;-59
2023/08/22 07:11:37;;;;;;;19.17;6.78;;;26.60;99.90;;;;;;5045832;28;20058;-58
2023/08/22 07:14:03;;;;;;;16.23;6.60;;;26.60;99.90;;;;;;5046134;28;20587;-61
2023/08/22 07:16:30;;;;;;;16.80;6.68;;;26.60;99.90;;;;;;5046436;28;20547;-60
2023/08/22 07:18:56;;;;;;;18.58;6.22;;;26.60;99.90;;;;;;5046093;28;20544;-57
2023/08/22 07:21:23;;;;;;;16.02;5.65;;;26.60;99.90;;;;;;5046134;28;20087;-60
2023/08/22 07:23:49;;;;;;;14.10;5.35;;;26.50;99.90;;;;;;5046156;28;20105;-60
2023/08/22 07:26:15;;;;;;;13.32;5.15;;;26.50;99.90;;;;;;5046042;28;20071;-61
2023/08/22 07:28:42;;;;;;;16.50;5.45;;;26.50;99.90;;;;;;5045657;28;20102;-58
2023/08/22 07:31:08;;;;;;;13.05;5.25;;;26.40;99.90;;;;;;5046477;28;20127;-58
2023/08/22 07:33:34;;;;;;;12.73;5.78;;;26.40;99.90;;;;;;5045406;28;20421;-58
2023/08/22 07:36:02;;;;;;;10.55;4.90;;;26.40;99.90;;;;;;5043040;28;20072;-60
2023/08/22 07:38:29;;;;;;;14.93;5.25;;;26.40;99.90;;;;;;5045390;28;20428;-59
2023/08/22 07:40:56;;;;;;;17.00;5.30;;;26.40;99.90;;;;;;5046265;28;20073;-58
2023/08/22 07:43:22;;;;;;;15.65;5.45;;;26.30;99.90;;;;;;5046266;28;20051;-60
2023/08/22 07:45:48;;;;;;;24.08;5.88;;;26.30;99.90;;;;;;5045569;28;20413;-58
2023/08/22 07:48:16;;;;;;;20.55;6.65;;;26.30;99.90;;;;;;5044989;28;20059;-57
2023/08/22 07:50:43;;;;;;;20.58;5.70;;;26.30;99.90;;;;;;5045734;28;20139;-53
2023/08/22 07:53:09;;;;;;;20.50;6.85;;;26.30;99.90;;;;;;5045404;28;20068;-58
2023/08/22 07:55:36;;;;;;;26.55;9.20;;;26.20;99.90;;;;;;5045848;28;20077;-56
2023/08/22 07:58:02;;;;;;;37.70;11.88;;;26.20;99.90;;;;;;5046277;28;20088;-58
2023/08/22 08:00:29;;;;;;;34.22;12.23;;;26.20;99.90;;;;;;5046023;28;20065;-56
2023/08/22 08:02:55;;;;;;;34.72;12.95;;;26.20;99.90;;;;;;5045444;28;20524;-55
2023/08/22 08:05:22;;;;;;;44.90;13.68;;;26.20;99.90;;;;;;5044922;28;20069;-56
2023/08/22 08:07:48;;;;;;;34.70;13.95;;;26.20;99.90;;;;;;5044763;28;20611;-54
2023/08/22 08:10:15;;;;;;;42.47;14.98;;;26.10;99.90;;;;;;5045357;28;20077;-59
2023/08/22 08:12:41;;;;;;;36.10;13.95;;;26.10;99.90;;;;;;5044726;28;20081;-55
2023/08/22 08:15:08;;;;;;;34.75;15.88;;;26.10;99.90;;;;;;5045605;28;20592;-57
2023/08/22 08:17:34;;;;;;;43.13;17.65;;;26.10;99.90;;;;;;5044925;28;20086;-56
2023/08/22 08:20:02;;;;;;;50.08;19.38;;;26.10;99.90;;;;;;5044312;28;20138;-57
2023/08/22 08:22:29;;;;;;;41.95;18.40;;;26.10;99.90;;;;;;5048628;28;20062;-56
2023/08/22 08:24:55;;;;;;;47.53;18.95;;;26.10;99.90;;;;;;5049444;28;20060;-58
2023/08/22 08:27:22;;;;;;;46.30;19.15;;;26.10;99.90;;;;;;5046915;28;20071;-56
2023/08/22 08:29:48;;;;;;;37.08;17.30;;;26.10;99.90;;;;;;5044941;28;20654;-58
2023/08/22 08:32:15;;;;;;;50.67;19.58;;;26.10;99.90;;;;;;5047685;28;20152;-56
2023/08/22 08:34:41;;;;;;;43.85;18.17;;;26.10;99.90;;;;;;5049357;28;20065;-57
2023/08/22 08:37:08;;;;;;;48.88;18.90;;;26.10;99.90;;;;;;5048233;28;20092;-58
2023/08/22 08:39:35;;;;;;;46.97;17.63;;;26.30;99.90;;;;;;5046745;28;20146;-57
2023/08/22 08:42:12;;;;;;;38.78;15.93;;;26.40;99.90;;;;;;5047677;28;21652;-55
2023/08/22 08:44:39;;;;;;;43.53;17.20;;;26.50;99.90;;;;;;5046410;28;20457;-57
2023/08/22 08:47:10;;;;;;;37.17;16.38;;;26.50;99.90;;;;;;5048256;28;20061;-56
2023/08/22 08:49:37;;;;;;;39.30;18.40;;;26.70;99.90;;;;;;5048267;28;20112;-57
2023/08/22 08:52:10;;;;;;;35.25;16.77;;;26.70;99.90;;;;;;5048331;28;20107;-58
2023/08/22 08:54:36;;;;;;;37.75;16.83;;;26.70;99.90;;;;;;5047795;28;20071;-56
2023/08/22 08:57:03;;;;;;;34.08;16.05;;;26.60;99.90;;;;;;5048375;28;20105;-59
2023/08/22 08:59:30;;;;;;;31.98;16.45;;;26.50;99.90;;;;;;5044667;28;20482;-56
2023/08/22 09:01:59;;;;;;;41.92;18.15;;;26.40;99.90;;;;;;5047393;28;20147;-57
2023/08/22 09:04:26;;;;;;;37.85;18.35;;;26.40;99.90;;;;;;5046522;28;20063;-59
2023/08/22 09:06:52;;;;;;;46.42;18.75;;;26.30;99.90;;;;;;5046144;28;20138;-58
2023/08/22 09:09:19;;;;;;;32.90;17.00;;;26.20;99.90;;;;;;5045847;28;20077;-56
2023/08/22 09:11:48;;;;;;;43.00;18.05;;;26.30;99.90;;;;;;5047527;28;20393;-56
2023/08/22 09:14:23;;;;;;;36.92;16.88;;;26.40;99.90;;;;;;5045253;28;20072;-61
2023/08/22 09:16:50;;;;;;;33.45;15.55;;;26.30;99.90;;;;;;5044458;28;20082;-56
2023/08/22 09:19:17;;;;;;;32.20;16.45;;;26.30;99.90;;;;;;5046643;28;20063;-54
2023/08/22 09:22:03;;;;;;;32.63;14.93;;;26.40;99.90;;;;;;5046261;28;20556;-58
2023/08/22 09:24:31;;;;;;;29.85;15.40;;;26.40;99.90;;;;;;5046984;28;20062;-59
2023/08/22 09:26:58;;;;;;;28.02;14.57;;;26.40;99.90;;;;;;5048028;28;20453;-58
2023/08/22 09:29:32;;;;;;;35.42;15.13;;;26.40;99.90;;;;;;5046326;28;20054;-56
2023/08/22 09:32:02;;;;;;;34.33;15.20;;;26.40;99.90;;;;;;5047329;28;20135;-58
2023/08/22 09:34:28;;;;;;;27.67;14.63;;;26.40;99.90;;;;;;5046310;28;20055;-57
2023/08/22 09:36:55;;;;;;;24.95;13.82;;;26.40;99.90;;;;;;5046817;28;20444;-58
2023/08/22 09:39:23;;;;;;;28.58;14.05;;;26.40;99.90;;;;;;5047465;28;20476;-58
2023/08/22 09:41:56;;;;;;;25.02;13.35;;;26.40;99.90;;;;;;5048208;28;20052;-56
2023/08/22 09:44:27;;;;;;;25.52;12.98;;;26.40;99.90;;;;;;5045603;28;20060;-59
2023/08/22 09:46:56;;;;;;;27.83;13.32;;;26.30;99.90;;;;;;5047201;28;20070;-59
2023/08/22 09:49:23;;;;;;;27.05;13.85;;;26.40;99.90;;;;;;5046575;28;20141;-56
2023/08/22 09:51:53;;;;;;;31.92;14.25;;;26.40;99.90;;;;;;5047138;28;20045;-57
2023/08/22 09:54:19;;;;;;;25.08;14.02;;;26.30;99.90;;;;;;5046988;28;20214;-57
2023/08/22 09:56:46;;;;;;;31.58;14.65;;;26.30;99.90;;;;;;5047349;28;20059;-59
2023/08/22 09:59:14;;;;;;;28.30;14.45;;;26.30;99.90;;;;;;5045932;28;20197;-56
2023/08/22 10:01:42;;;;;;;21.40;14.23;;;26.30;99.90;;;;;;5046363;28;20053;-58
2023/08/22 10:04:09;;;;;;;27.85;14.57;;;26.30;99.90;;;;;;5046529;28;20138;-55
2023/08/22 10:06:38;;;;;;;24.73;13.75;;;26.30;99.90;;;;;;5046390;28;20153;-55
2023/08/22 10:09:10;;;;;;;22.40;12.40;;;26.20;99.90;;;;;;5045194;28;20071;-55
2023/08/22 10:11:46;;;;;;;19.70;12.40;;;26.20;99.90;;;;;;5048777;28;20251;-56
2023/08/22 10:14:14;;;;;;;;;;;26.20;99.90;;;;;;5046765;28;20596;-57
2023/08/22 10:16:41;;;;;;;18.35;11.30;;;26.20;99.90;;;;;;5047200;28;19948;-55
2023/08/22 10:19:09;;;;;;;19.17;11.18;;;26.20;99.90;;;;;;5045871;28;20075;-58
2023/08/22 10:21:46;;;;;;;22.45;11.63;;;26.20;99.90;;;;;;5046414;28;20050;-59
2023/08/22 10:24:29;;;;;;;19.10;10.40;;;26.20;99.90;;;;;;5046925;28;20082;-57
2023/08/22 10:27:14;;;;;;;19.70;9.85;;;26.20;99.90;;;;;;5046159;28;20154;-55
2023/08/22 10:29:47;;;;;;;18.50;9.50;;;26.20;99.90;;;;;;5045974;28;20634;-58
2023/08/22 10:32:19;;;;;;;17.45;9.27;;;26.20;99.90;;;;;;5045526;28;20105;-57
2023/08/22 10:34:45;;;;;;;16.38;9.10;;;26.10;99.90;;;;;;5044752;28;20053;-56
2023/08/22 10:37:20;;;;;;;17.60;9.18;;;26.10;99.90;;;;;;5046775;28;20097;-58
2023/08/22 10:39:50;;;;;;;14.90;8.70;;;26.10;99.90;;;;;;5046242;28;20061;-60
2023/08/22 10:42:21;;;;;;;15.63;8.57;;;26.00;99.90;;;;;;5046324;28;20068;-58
2023/08/22 10:44:51;;;;;;;14.52;8.50;;;26.00;99.90;;;;;;5044641;28;20061;-57
2023/08/22 10:47:38;;;;;;;15.80;8.85;;;26.00;99.90;;;;;;5046540;28;20069;-58
2023/08/22 10:50:11;;;;;;;15.63;8.45;;;25.90;99.90;;;;;;5046476;28;20406;-56
2023/08/22 10:52:40;;;;;;;17.52;8.57;;;25.90;99.90;;;;;;5045710;28;20100;-56
2023/08/22 10:55:15;;;;;;;14.52;8.43;;;25.90;99.90;;;;;;5047160;28;20535;-55
2023/08/22 10:57:44;;;;;;;12.75;6.95;;;25.80;99.90;;;;;;5045329;28;20077;-58
2023/08/22 11:00:19;;;;;;;16.70;7.93;;;25.70;99.90;;;;;;5045655;28;20049;-59
2023/08/22 11:02:50;;;;;;;10.18;6.45;;;25.70;99.90;;;;;;5045112;28;20504;-56
2023/08/22 11:05:17;;;;;;;13.30;6.30;;;25.70;99.90;;;;;;5045839;28;20114;-57
2023/08/22 11:07:48;;;;;;;16.75;6.97;;;25.70;99.90;;;;;;5045368;28;20455;-55
2023/08/22 11:10:26;;;;;;;8.90;6.10;;;25.70;99.90;;;;;;5046418;28;20577;-58
2023/08/22 11:12:56;;;;;;;12.52;6.00;;;25.70;99.90;;;;;;5046116;28;20469;-53
2023/08/22 11:15:23;;;;;;;12.38;5.78;;;25.60;99.90;;;;;;5046762;28;20055;-58
2023/08/22 11:17:50;;;;;;;10.90;5.53;;;25.60;99.90;;;;;;5045415;28;20104;-55
2023/08/22 11:20:20;;;;;;;8.40;4.95;;;25.60;99.90;;;;;;5045911;28;20070;-59
2023/08/22 11:22:46;;;;;;;11.98;4.80;;;25.60;99.90;;;;;;5045827;28;20134;-53
2023/08/22 11:25:21;;;;;;;10.88;5.15;;;25.60;99.90;;;;;;5045774;28;20587;-54
2023/08/22 11:27:47;;;;;;;12.15;5.40;;;25.60;99.90;;;;;;5044943;28;20158;-57
2023/08/22 11:30:13;;;;;;;13.20;5.05;;;25.60;99.90;;;;;;5045949;28;20067;-57
2023/08/22 11:32:40;;;;;;;12.07;5.30;;;25.60;99.90;;;;;;5045595;28;20579;-58
2023/08/22 11:35:10;;;;;;;12.82;5.30;;;25.60;99.90;;;;;;5045964;28;20156;-58
2023/08/22 11:37:39;;;;;;;11.45;5.32;;;25.60;99.90;;;;;;5046094;28;20098;-56
2023/08/22 11:40:09;;;;;;;11.38;5.60;;;25.60;99.90;;;;;;5044509;28;20111;-55
2023/08/22 11:42:37;;;;;;;9.25;5.10;;;25.50;99.90;;;;;;5045736;28;20091;-57
2023/08/22 11:45:04;;;;;;;12.98;5.30;;;25.50;99.90;;;;;;5045257;28;20058;-53
2023/08/22 11:47:47;;;;;;;12.35;5.43;;;25.50;99.90;;;;;;5046254;28;20082;-54
2023/08/22 11:50:24;;;;;;;8.77;5.07;;;25.40;99.90;;;;;;5046662;28;20147;-55
2023/08/22 11:52:55;;;;;;;12.13;5.47;;;25.40;99.90;;;;;;5045922;28;20095;-56
2023/08/22 11:55:26;;;;;;;11.27;5.40;;;25.40;99.90;;;;;;5046075;28;20083;-57
2023/08/22 11:57:59;;;;;;;9.25;5.20;;;25.40;99.90;;;;;;5048732;28;20106;-58
2023/08/22 12:00:27;;;;;;;7.22;4.63;;;25.40;99.90;;;;;;5049052;28;20420;-55
2023/08/22 12:02:56;;;;;;;12.50;5.57;;;25.40;99.90;;;;;;5049314;28;20076;-59
2023/08/22 12:05:37;;;;;;;13.23;6.90;;;25.40;99.90;;;;;;5049439;28;20060;-54
2023/08/22 12:08:06;;;;;;;13.80;6.68;;;25.40;99.90;;;;;;5047555;28;20094;-55
2023/08/22 12:10:45;;;;;;;10.63;6.85;;;25.40;99.90;;;;;;5049036;28;20071;-55
2023/08/22 12:13:13;;;;;;;17.42;6.85;;;25.40;99.90;;;;;;5048206;28;20073;-52
2023/08/22 12:15:40;;;;;;;14.98;7.10;;;25.30;99.90;;;;;;5048854;28;20451;-55
2023/08/22 12:18:08;;;;;;;9.85;6.68;;;25.40;99.90;;;;;;5047818;28;20174;-58
2023/08/22 12:20:38;;;;;;;12.00;6.70;;;25.40;99.90;;;;;;5049546;28;20067;-56
2023/08/22 12:23:05;;;;;;;11.73;7.20;;;25.30;99.90;;;;;;5047931;28;20576;-57
2023/08/22 12:25:34;;;;;;;12.88;6.55;;;25.30;99.90;;;;;;5049798;28;20080;-62
2023/08/22 12:28:05;;;;;;;14.85;8.00;;;25.30;99.90;;;;;;5049405;28;22021;-54
2023/08/22 12:30:35;;;;;;;14.88;8.55;;;25.30;99.90;;;;;;5048952;28;20123;-56
2023/08/22 12:33:05;;;;;;;14.38;8.73;;;25.30;99.90;;;;;;5048355;28;20064;-57
2023/08/22 12:35:33;;;;;;;14.57;9.45;;;25.30;99.90;;;;;;5048656;28;20079;-57
2023/08/22 12:38:00;;;;;;;20.55;9.77;;;25.30;99.90;;;;;;5048048;28;20530;-57
2023/08/22 12:40:27;;;;;;;15.30;11.15;;;25.30;99.90;;;;;;5048346;28;20057;-55
2023/08/22 12:42:54;;;;;;;19.13;11.23;;;25.30;99.90;;;;;;5049179;28;20146;-56